Time;durP1;ratioP1;P1;durP2;ratioP2;P2;SDS_P1;SDS_P2;PMS_P1;PMS_P2;Temp;Humidity;BMP_temperature;BMP_pressure;BME280_temperature;BME280_humidity;BME280_pressure;Samples;Min_cycle;Max_cycle;Signal;HPM_P1;HPM_P2
2021/11/27 00:01:44;;;;;;;27.30;18.13;;;;;;;5.71;94.65;98252.19;1348520;90;22322;-90
2021/11/27 00:04:11;;;;;;;25.50;17.30;;;;;;;5.67;94.74;98255.65;1339170;91;22464;-88
2021/11/27 00:06:39;;;;;;;24.70;16.57;;;;;;;5.64;94.83;98253.36;1338887;91;21436;-89
2021/11/27 00:09:07;;;;;;;22.53;14.80;;;;;;;5.62;94.75;98249.58;1345879;91;21482;-88
2021/11/27 00:11:34;;;;;;;20.43;14.40;;;;;;;5.63;94.52;98250.39;1348888;90;21423;-87
2021/11/27 00:14:02;;;;;;;24.37;16.03;;;;;;;5.64;94.39;98248.11;1338836;91;21370;-89
2021/11/27 00:16:29;;;;;;;24.33;17.83;;;;;;;5.62;94.71;98250.08;1335154;93;21326;-88
2021/11/27 00:18:56;;;;;;;22.50;14.83;;;;;;;5.58;95.42;98246.14;1338966;90;21463;-87
2021/11/27 00:21:24;;;;;;;29.10;16.50;;;;;;;5.56;95.71;98244.20;1347180;89;21339;-87
2021/11/27 00:23:54;;;;;;;22.97;16.43;;;;;;;5.53;96.00;98247.16;1363335;89;21445;-88
2021/11/27 00:26:23;;;;;;;22.07;14.30;;;;;;;5.52;95.79;98237.63;1368235;89;21531;-87
2021/11/27 00:28:51;;;;;;;24.57;14.93;;;;;;;5.50;95.91;98240.94;1365615;89;22292;-88
2021/11/27 00:31:25;;;;;;;24.03;15.63;;;;;;;5.46;96.15;98244.38;1365240;89;21319;-88
2021/11/27 00:33:55;;;;;;;18.57;12.90;;;;;;;5.44;96.48;98250.30;1371229;89;21353;-87
2021/11/27 00:36:23;;;;;;;22.30;14.57;;;;;;;5.40;97.51;98239.30;1361834;89;21334;-89
2021/11/27 00:38:51;;;;;;;21.67;14.33;;;;;;;5.38;97.72;98243.92;1350863;90;21541;-88
2021/11/27 00:41:20;;;;;;;23.13;15.03;;;;;;;5.33;98.78;98251.47;1349397;91;21383;-90
2021/11/27 00:43:47;;;;;;;23.70;16.87;;;;;;;5.33;98.37;98250.66;1344571;91;21457;-89
2021/11/27 00:46:15;;;;;;;21.33;13.73;;;;;;;5.31;98.56;98247.37;1359082;89;21429;-90
2021/11/27 00:48:43;;;;;;;25.03;15.50;;;;;;;5.30;98.43;98251.80;1375930;89;22210;-89
2021/11/27 00:51:16;;;;;;;17.50;11.87;;;;;;;5.29;98.82;98250.64;1344375;91;21347;-89
2021/11/27 00:53:43;;;;;;;21.33;15.20;;;;;;;5.26;98.41;98259.66;1338432;92;21450;-89
2021/11/27 00:56:11;;;;;;;20.53;13.40;;;;;;;5.25;97.91;98259.84;1330168;92;21355;-88
2021/11/27 00:58:39;;;;;;;19.13;14.43;;;;;;;5.23;97.38;98259.99;1333953;92;21516;-90
2021/11/27 01:01:11;;;;;;;20.20;13.73;;;;;;;5.23;96.88;98258.69;1333119;92;21491;-89
2021/11/27 01:03:41;;;;;;;17.83;13.20;;;;;;;5.24;96.53;98260.34;1331816;92;21534;-91
2021/11/27 01:06:10;;;;;;;18.67;14.60;;;;;;;5.23;96.37;98256.06;1332540;92;22274;-89
2021/11/27 01:08:38;;;;;;;18.30;12.87;;;;;;;5.21;96.20;98263.30;1329327;93;22463;-89
2021/11/27 01:11:20;;;;;;;15.60;11.83;;;;;;;5.21;95.86;98268.55;1330435;91;21384;-91
2021/11/27 01:13:48;;;;;;;16.07;11.90;;;;;;;5.15;94.43;98260.34;1333241;92;22352;-89
2021/11/27 01:16:18;;;;;;;14.50;10.67;;;;;;;5.16;93.38;98260.34;1335921;92;21461;-90
2021/11/27 01:18:47;;;;;;;13.88;9.90;;;;;;;5.14;92.62;98257.06;1314239;93;21406;-89
2021/11/27 01:21:19;;;;;;;14.03;9.43;;;;;;;5.14;91.27;98270.17;1331526;93;22451;-90
2021/11/27 01:23:49;;;;;;;11.10;7.70;;;;;;;5.14;89.92;98257.88;1331519;91;21377;-89
2021/11/27 01:26:17;;;;;;;14.30;8.93;;;;;;;5.15;90.11;98263.94;1337163;92;22344;-87
2021/11/27 01:28:44;;;;;;;13.80;10.00;;;;;;;5.10;89.63;98264.95;1341414;91;21350;-86
2021/11/27 01:31:12;;;;;;;13.27;8.93;;;;;;;5.10;89.63;98264.95;1362187;90;21414;-88
2021/11/27 01:33:39;;;;;;;13.93;10.30;;;;;;;5.11;90.11;98261.33;1358686;90;22420;-86
2021/11/27 01:36:07;;;;;;;13.93;9.30;;;;;;;5.06;90.06;98270.98;1351587;89;21354;-86
2021/11/27 01:38:35;;;;;;;17.77;10.67;;;;;;;5.04;90.00;98270.86;1348240;91;21320;-87
2021/11/27 01:41:03;;;;;;;15.57;10.83;;;;;;;5.05;90.45;98276.41;1331873;91;21466;-86
2021/11/27 01:43:33;;;;;;;12.30;8.23;;;;;;;5.01;90.20;98281.67;1350149;90;21382;-87
2021/11/27 01:46:00;;;;;;;15.00;9.53;;;;;;;5.00;89.73;98291.81;1329904;92;21370;-86
2021/11/27 01:48:28;;;;;;;12.53;8.80;;;;;;;4.90;89.44;98282.81;1347706;90;21398;-87
2021/11/27 01:51:04;;;;;;;12.63;8.57;;;;;;;4.90;89.42;98283.63;1344404;92;22316;-87
2021/11/27 01:53:35;;;;;;;7.90;6.47;;;;;;;4.88;89.76;98291.33;1331946;93;21547;-86
2021/11/27 01:56:07;;;;;;;16.77;10.13;;;;;;;4.68;88.51;98282.45;1354685;91;21605;-87
2021/11/27 01:58:34;;;;;;;11.60;7.83;;;;;;;4.58;89.08;98299.33;1350460;91;21384;-87
2021/11/27 02:01:10;;;;;;;12.67;9.67;;;;;;;4.44;89.26;98301.58;1349438;91;22047;-87
2021/11/27 02:03:38;;;;;;;11.50;8.90;;;;;;;4.23;89.86;98295.95;1334447;91;21470;-87
2021/11/27 02:06:07;;;;;;;11.60;9.30;;;;;;;4.23;89.86;98295.95;1345414;92;21325;-86
2021/11/27 02:08:35;;;;;;;13.70;8.90;;;;;;;4.10;89.92;98316.05;1345522;91;22100;-86
2021/11/27 02:11:05;;;;;;;12.77;10.23;;;;;;;4.05;90.25;98309.96;1335057;93;22080;-86
2021/11/27 02:13:32;;;;;;;15.88;9.98;;;;;;;3.98;90.60;98301.11;1344395;91;23198;-86
2021/11/27 02:16:00;;;;;;;12.80;9.17;;;;;;;3.96;90.61;98301.75;1347075;91;21297;-86
2021/11/27 02:18:27;;;;;;;13.07;9.30;;;;;;;3.92;90.76;98306.98;1347010;91;22123;-86
2021/11/27 02:20:58;;;;;;;12.63;9.73;;;;;;;3.90;90.67;98317.27;1348904;91;22994;-85
2021/11/27 02:23:32;;;;;;;12.63;9.53;;;;;;;3.82;90.73;98312.81;1328768;92;22194;-85
2021/11/27 02:26:03;;;;;;;12.57;9.30;;;;;;;3.78;91.11;98328.01;1351636;91;22234;-87
2021/11/27 02:28:33;;;;;;;10.98;8.73;;;;;;;3.74;91.07;98329.77;1336399;91;23811;-88
2021/11/27 02:31:01;;;;;;;11.40;8.68;;;;;;;3.62;91.24;98333.13;1346863;91;21436;-86
2021/11/27 02:33:29;;;;;;;12.87;9.70;;;;;;;3.57;91.36;98349.31;1358989;91;21383;-88
2021/11/27 02:35:56;;;;;;;13.20;9.23;;;;;;;3.43;90.96;98330.26;1348157;92;22082;-90
2021/11/27 02:38:24;;;;;;;11.50;9.50;;;;;;;3.43;90.96;98330.26;1347266;91;22984;-88
2021/11/27 02:40:52;;;;;;;11.97;8.77;;;;;;;3.28;90.42;98345.68;1349948;92;21899;-87
2021/11/27 02:43:19;;;;;;;10.17;8.33;;;;;;;3.03;91.25;98335.51;1333320;92;22307;-89
2021/11/27 02:45:46;;;;;;;11.30;9.10;;;;;;;3.03;91.25;98335.51;1348997;89;21809;-90
2021/11/27 02:48:14;;;;;;;12.00;9.90;;;;;;;3.06;91.03;98345.66;1352982;89;21980;-88
2021/11/27 02:50:41;;;;;;;12.13;10.27;;;;;;;3.01;91.33;98347.89;1329331;91;22963;-89
2021/11/27 02:53:09;;;;;;;10.70;8.50;;;;;;;2.95;91.38;98348.50;1345734;91;22043;-88
2021/11/27 02:55:36;;;;;;;11.37;8.63;;;;;;;2.90;91.63;98369.84;1343550;91;22115;-90
2021/11/27 02:58:04;;;;;;;13.10;10.30;;;;;;;2.80;91.66;98364.38;1346279;91;21877;-89
2021/11/27 03:00:32;;;;;;;12.70;9.70;;;;;;;2.78;91.88;98365.81;1350184;91;21960;-90
2021/11/27 03:02:59;;;;;;;13.93;10.43;;;;;;;2.73;92.20;98367.22;1349382;91;21876;-90
2021/11/27 03:05:26;;;;;;;11.37;9.23;;;;;;;2.70;92.36;98369.19;1353011;91;21745;-89
2021/11/27 03:07:53;;;;;;;10.47;8.33;;;;;;;2.64;91.83;98362.40;1333024;91;22543;-89
2021/11/27 03:10:21;;;;;;;10.77;8.17;;;;;;;2.64;91.83;98362.40;1349030;91;21800;-90
2021/11/27 03:12:50;;;;;;;9.17;7.93;;;;;;;2.68;90.65;98365.89;1351114;91;22898;-89
2021/11/27 03:15:19;;;;;;;9.40;7.50;;;;;;;2.69;90.16;98371.44;1301035;95;22953;-90
2021/11/27 03:17:47;;;;;;;11.27;9.03;;;;;;;2.74;90.24;98381.45;1346398;91;21571;-89
2021/11/27 03:20:18;;;;;;;12.57;9.67;;;;;;;2.76;90.45;98384.72;1340547;90;22624;-89
2021/11/27 03:22:46;;;;;;;8.58;7.10;;;;;;;2.74;90.08;98379.33;1349635;91;21892;-90
2021/11/27 03:25:14;;;;;;;11.50;8.87;;;;;;;2.68;89.87;98384.17;1326423;92;21496;-90
2021/11/27 03:27:41;;;;;;;8.93;7.63;;;;;;;2.68;89.87;98384.17;1313884;94;21777;-86
2021/11/27 03:30:14;;;;;;;10.93;8.00;;;;;;;2.67;90.07;98383.81;1315362;94;22647;-86
2021/11/27 03:32:42;;;;;;;11.07;8.63;;;;;;;2.70;89.75;98390.08;1327635;92;22024;-86
2021/11/27 03:35:09;;;;;;;9.20;7.77;;;;;;;2.70;89.75;98390.08;1327210;91;21915;-86
2021/11/27 03:37:38;;;;;;;8.17;6.53;;;;;;;2.71;89.77;98394.33;1330424;91;21831;-86
2021/11/27 03:40:08;;;;;;;9.30;7.60;;;;;;;2.70;89.38;98395.77;1326816;91;21771;-89
2021/11/27 03:42:35;;;;;;;8.77;7.60;;;;;;;2.70;89.18;98401.83;1311128;92;21742;-90
2021/11/27 03:45:06;;;;;;;8.57;7.33;;;;;;;2.74;88.99;98425.05;1321196;91;22719;-90
2021/11/27 03:47:33;;;;;;;;;;;;;;;2.67;88.32;98423.00;1332596;91;23430;-90
2021/11/27 03:50:01;;;;;;;10.87;8.27;;;;;;;2.63;88.67;98412.52;1321538;91;20241;-89
2021/11/27 03:52:28;;;;;;;10.73;8.87;;;;;;;2.65;89.09;98420.22;1316775;93;21747;-88
2021/11/27 03:54:55;;;;;;;9.77;8.53;;;;;;;2.64;88.83;98415.45;1326082;92;21780;-90
2021/11/27 03:57:22;;;;;;;9.87;8.10;;;;;;;2.63;88.67;98420.35;1324678;92;22529;-89
2021/11/27 03:59:49;;;;;;;9.33;8.33;;;;;;;2.63;88.67;98420.35;1323258;91;21832;-87
2021/11/27 04:02:17;;;;;;;7.80;6.73;;;;;;;2.65;88.94;98418.42;1321211;91;21761;-87
2021/11/27 04:04:45;;;;;;;9.37;8.27;;;;;;;2.63;88.65;98426.88;1314846;94;22668;-88
2021/11/27 04:07:13;;;;;;;8.53;7.53;;;;;;;2.63;88.93;98429.49;1312097;94;21812;-90
2021/11/27 04:09:40;;;;;;;10.20;8.63;;;;;;;2.63;88.93;98429.49;1316504;94;22764;-87
2021/11/27 04:12:07;;;;;;;8.70;7.30;;;;;;;2.62;88.75;98431.78;1331982;92;21768;-85
2021/11/27 04:14:34;;;;;;;9.87;8.37;;;;;;;2.60;88.62;98432.40;1329642;93;21963;-86
2021/11/27 04:17:02;;;;;;;10.70;8.20;;;;;;;2.64;88.89;98438.96;1331578;92;21692;-86
2021/11/27 04:19:29;;;;;;;10.17;7.90;;;;;;;2.66;88.86;98454.50;1332167;93;21732;-85
2021/11/27 04:21:56;;;;;;;10.13;8.03;;;;;;;2.64;88.87;98469.00;1333487;92;21802;-85
2021/11/27 04:24:23;;;;;;;9.77;8.57;;;;;;;2.63;88.92;98458.22;1322279;94;21712;-86
2021/11/27 04:26:50;;;;;;;9.00;7.73;;;;;;;2.63;88.68;98464.75;1313251;94;21939;-86
2021/11/27 04:29:18;;;;;;;9.97;7.63;;;;;;;2.66;88.76;98467.08;1317512;94;21653;-86
2021/11/27 04:31:45;;;;;;;8.57;7.23;;;;;;;2.64;88.67;98471.61;1329589;92;21764;-86
2021/11/27 04:34:12;;;;;;;8.73;7.50;;;;;;;2.60;87.82;98471.57;1334523;92;22544;-88
2021/11/27 04:36:39;;;;;;;9.73;7.30;;;;;;;2.53;87.48;98473.10;1320455;93;21710;-88
2021/11/27 04:39:06;;;;;;;8.67;7.43;;;;;;;2.51;87.41;98473.75;1333253;92;21829;-85
2021/11/27 04:41:34;;;;;;;9.03;7.70;;;;;;;2.47;87.40;98474.98;1334486;92;21738;-88
2021/11/27 04:44:01;;;;;;;6.73;5.53;;;;;;;2.48;87.60;98472.73;1336765;92;21703;-88
2021/11/27 04:46:28;;;;;;;9.60;7.80;;;;;;;2.43;87.63;98479.68;1326898;92;21723;-88
2021/11/27 04:48:55;;;;;;;10.83;7.63;;;;;;;2.47;87.78;98477.14;1331348;92;21713;-89
2021/11/27 04:51:22;;;;;;;11.70;8.33;;;;;;;2.46;87.39;98484.61;1332824;92;21786;-91
2021/11/27 04:53:50;;;;;;;10.10;8.60;;;;;;;2.44;87.28;98476.58;1335865;93;22487;-91
2021/11/27 04:56:17;;;;;;;10.30;8.30;;;;;;;2.47;87.09;98484.13;1334347;92;21781;-90
2021/11/27 04:58:44;;;;;;;12.10;8.70;;;;;;;2.44;86.86;98487.02;1313970;94;21651;-84
2021/11/27 05:01:12;;;;;;;10.93;8.83;;;;;;;2.43;87.04;98489.31;1330002;92;22699;-89
2021/11/27 05:03:39;;;;;;;11.20;8.73;;;;;;;2.40;87.17;98497.42;1331528;92;21665;-93
2021/11/27 05:06:06;;;;;;;12.13;8.37;;;;;;;2.41;87.32;98493.84;1318527;93;22780;-90
2021/11/27 05:08:34;;;;;;;14.33;10.73;;;;;;;2.40;87.67;98502.16;1316050;94;22776;-90
2021/11/27 05:11:01;;;;;;;13.77;10.80;;;;;;;2.39;87.53;98501.02;1309965;94;21687;-90
2021/11/27 05:13:28;;;;;;;12.67;10.20;;;;;;;2.38;87.01;98513.22;1319958;93;21845;-89
2021/11/27 05:15:55;;;;;;;16.00;11.40;;;;;;;2.34;87.25;98514.97;1305981;94;21700;-90
2021/11/27 05:18:22;;;;;;;12.13;9.67;;;;;;;2.33;87.27;98531.58;1317602;94;21712;-88
2021/11/27 05:20:50;;;;;;;13.70;10.20;;;;;;;2.33;87.21;98533.73;1330215;92;21712;-87
2021/11/27 05:23:17;;;;;;;12.73;10.10;;;;;;;2.32;87.08;98532.06;1329710;92;21771;-88
2021/11/27 05:25:44;;;;;;;15.70;11.47;;;;;;;2.31;87.20;98533.53;1330234;92;21697;-89
2021/11/27 05:28:11;;;;;;;20.10;12.23;;;;;;;2.30;87.30;98538.39;1332831;92;22733;-88
2021/11/27 05:30:38;;;;;;;13.70;11.00;;;;;;;2.29;87.52;98544.59;1333698;92;21749;-88
2021/11/27 05:33:13;;;;;;;13.93;11.47;;;;;;;2.23;87.90;98545.48;1315142;93;21720;-87
2021/11/27 05:35:41;;;;;;;12.30;10.80;;;;;;;2.22;88.28;98547.77;1320030;93;21603;-89
2021/11/27 05:38:09;;;;;;;14.33;11.43;;;;;;;2.16;88.42;98550.12;1317375;93;23146;-89
2021/11/27 05:40:38;;;;;;;16.80;12.83;;;;;;;2.09;88.76;98555.05;1300899;95;21585;-88
2021/11/27 05:43:05;;;;;;;15.73;11.47;;;;;;;2.05;88.67;98553.70;1316836;93;21681;-88
2021/11/27 05:45:32;;;;;;;15.47;11.30;;;;;;;2.02;88.94;98556.59;1317009;94;21686;-88
2021/11/27 05:48:02;;;;;;;14.47;12.10;;;;;;;1.99;88.85;98559.48;1317077;94;21592;-87
2021/11/27 05:50:30;;;;;;;17.33;13.10;;;;;;;1.99;88.91;98557.69;1313676;93;22636;-93
2021/11/27 05:52:57;;;;;;;13.57;10.57;;;;;;;2.00;88.87;98566.33;1311293;94;21780;-92
2021/11/27 05:55:24;;;;;;;16.70;12.60;;;;;;;1.98;88.63;98578.68;1331488;92;21625;-90
2021/11/27 05:57:52;;;;;;;16.17;12.63;;;;;;;1.94;88.39;98569.50;1329072;92;21666;-90
2021/11/27 06:00:19;;;;;;;14.00;10.77;;;;;;;1.92;88.51;98573.53;1332851;92;21810;-91
2021/11/27 06:02:46;;;;;;;18.30;13.53;;;;;;;1.90;88.49;98577.23;1330396;91;21693;-91
2021/11/27 06:05:14;;;;;;;17.23;13.87;;;;;;;1.90;88.73;98572.88;1322358;91;21661;-91
2021/11/27 06:07:42;;;;;;;15.57;12.60;;;;;;;1.89;88.52;98578.20;1321945;92;21617;-89
2021/11/27 06:10:09;;;;;;;18.73;13.47;;;;;;;;;;1327939;92;22560;-90
2021/11/27 06:12:36;;;;;;;16.50;12.77;;;;;;;1.90;88.43;98577.23;1329628;91;21565;-90
2021/11/27 06:15:05;;;;;;;18.57;13.93;;;;;;;1.94;88.61;98578.63;1327700;91;21616;-88
2021/11/27 06:17:33;;;;;;;17.37;12.70;;;;;;;1.96;88.38;98594.98;1336466;92;21877;-91
2021/11/27 06:20:00;;;;;;;15.80;11.87;;;;;;;1.95;88.44;98590.70;1336103;92;21604;-90
2021/11/27 06:22:27;;;;;;;15.73;11.57;;;;;;;1.97;88.33;98592.70;1324145;92;21624;-91
2021/11/27 06:24:54;;;;;;;17.97;13.77;;;;;;;2.02;88.27;98594.42;1328249;92;21599;-91
2021/11/27 06:27:22;;;;;;;15.13;11.43;;;;;;;2.02;88.24;98598.34;1326275;92;21596;-92
2021/11/27 06:29:49;;;;;;;19.83;13.07;;;;;;;2.01;88.17;98598.82;1322058;92;21718;-92
2021/11/27 06:32:22;;;;;;;17.20;13.53;;;;;;;2.02;88.17;98607.47;1299699;95;21705;-91
2021/11/27 06:34:46;;;;;;;17.90;13.40;;;;;;;2.06;88.14;98610.13;1312924;94;21611;-91
2021/11/27 06:37:13;;;;;;;18.30;13.97;;;;;;;2.13;87.98;98615.16;1325294;92;21569;-91
2021/11/27 06:39:40;;;;;;;21.37;14.57;;;;;;;2.21;88.08;98623.09;1327395;92;21691;-91
2021/11/27 06:42:08;;;;;;;20.47;13.83;;;;;;;2.25;87.63;98623.18;1319263;92;21599;-91
2021/11/27 06:44:49;;;;;;;17.93;13.43;;;;;;;2.28;87.47;98635.63;1296922;96;21709;-90
2021/11/27 06:47:07;;;;;;;21.40;15.87;;;;;;;2.24;87.21;98641.12;1341047;92;21459;-90
2021/11/27 06:49:34;;;;;;;19.33;14.60;;;;;;;2.25;86.79;98651.89;1338553;92;21781;-90
2021/11/27 06:52:01;;;;;;;25.70;20.13;;;;;;;2.23;87.02;98651.20;1337581;92;21757;-91
2021/11/27 06:54:28;;;;;;;25.20;18.13;;;;;;;2.17;86.62;98653.55;1335780;92;21662;-91
2021/11/27 06:56:55;;;;;;;23.00;16.23;;;;;;;2.09;86.74;98664.66;1315959;93;21508;-90
2021/11/27 06:59:23;;;;;;;19.93;15.30;;;;;;;2.08;86.75;98664.33;1320918;94;21664;-92
2021/11/27 07:01:50;;;;;;;26.70;18.07;;;;;;;2.08;86.98;98665.63;1330581;89;21604;-91
2021/11/27 07:04:18;;;;;;;22.80;17.00;;;;;;;2.10;86.89;98659.80;1354829;89;21737;-91
2021/11/27 07:06:46;;;;;;;18.03;13.40;;;;;;;2.09;86.72;98664.66;1347490;90;21618;-90
2021/11/27 07:09:14;;;;;;;23.03;16.07;;;;;;;2.09;86.71;98669.88;1351681;90;21834;-90
2021/11/27 07:11:41;;;;;;;21.00;15.37;;;;;;;2.09;86.78;98671.19;1348200;90;22543;-91
2021/11/27 07:14:09;;;;;;;21.17;16.13;;;;;;;2.12;86.83;98673.52;1359441;89;21619;-91
2021/11/27 07:16:36;;;;;;;23.93;17.77;;;;;;;2.19;86.89;98669.91;1321227;93;21543;-91
2021/11/27 07:19:04;;;;;;;23.37;16.47;;;;;;;2.23;86.56;98668.66;1309594;93;21625;-91
2021/11/27 07:21:31;;;;;;;21.13;14.47;;;;;;;2.20;86.40;98680.19;1359176;90;21770;-90
2021/11/27 07:23:58;;;;;;;19.90;14.03;;;;;;;2.17;86.45;98675.24;1360183;89;21995;-90
2021/11/27 07:26:25;;;;;;;22.10;16.13;;;;;;;2.13;86.20;98683.47;1363177;89;21690;-91
2021/11/27 07:28:55;;;;;;;21.00;15.67;;;;;;;2.13;86.32;98686.08;1354460;89;22710;-91
2021/11/27 07:31:22;;;;;;;17.70;13.57;;;;;;;2.15;86.50;98694.12;1350128;91;21880;-91
2021/11/27 07:33:49;;;;;;;23.37;15.20;;;;;;;2.16;86.50;98697.09;1365017;89;21605;-91
2021/11/27 07:36:16;;;;;;;19.97;14.40;;;;;;;2.15;86.34;98696.73;1356161;90;21562;-92
2021/11/27 07:38:44;;;;;;;21.67;15.13;;;;;;;2.17;86.43;98694.82;1359463;90;21845;-91
2021/11/27 07:41:12;;;;;;;23.83;15.63;;;;;;;2.17;86.22;98700.04;1341115;91;21647;-89
2021/11/27 07:43:41;;;;;;;20.48;13.65;;;;;;;2.18;85.95;98704.29;1322185;94;21774;-90
2021/11/27 07:46:09;;;;;;;23.30;16.57;;;;;;;2.20;85.65;98710.20;1323094;92;21936;-91
2021/11/27 07:48:36;;;;;;;23.20;16.60;;;;;;;2.15;85.32;98707.17;1340914;91;21746;-92
2021/11/27 07:51:04;;;;;;;24.33;17.03;;;;;;;2.11;85.08;98709.72;1359806;89;21771;-90
2021/11/27 07:53:31;;;;;;;21.90;14.50;;;;;;;2.08;85.27;98710.00;1354190;90;21773;-91
2021/11/27 07:55:58;;;;;;;26.10;17.20;;;;;;;2.10;85.55;98713.30;1358218;90;21798;-91
2021/11/27 07:58:25;;;;;;;23.50;17.67;;;;;;;2.16;85.68;98717.98;1356282;91;21490;-90
2021/11/27 08:00:52;;;;;;;24.37;16.87;;;;;;;2.14;85.59;98710.75;1369068;89;22753;-91
2021/11/27 08:03:22;;;;;;;31.77;20.93;;;;;;;2.12;85.86;98716.58;1360856;89;21564;-90
2021/11/27 08:05:48;;;;;;;26.83;18.63;;;;;;;2.13;86.04;98713.03;1357539;89;22692;-90
2021/11/27 08:08:16;;;;;;;31.40;19.43;;;;;;;2.19;86.21;98717.70;1348138;91;21636;-91
2021/11/27 08:10:43;;;;;;;31.67;20.47;;;;;;;2.21;86.26;98725.38;1364364;90;21791;-90
2021/11/27 08:13:11;;;;;;;27.90;19.67;;;;;;;2.22;86.12;98723.95;1358618;89;21720;-90
2021/11/27 08:15:38;;;;;;;26.20;18.03;;;;;;;2.26;86.23;98727.93;1350178;90;21667;-89
2021/11/27 08:18:08;;;;;;;30.60;19.90;;;;;;;2.28;85.82;98726.98;1346750;90;22609;-90
2021/11/27 08:20:35;;;;;;;22.83;16.23;;;;;;;2.25;85.25;98719.77;1354490;89;21669;-90
2021/11/27 08:23:05;;;;;;;32.70;21.43;;;;;;;2.28;85.35;98724.38;1358718;89;21738;-88
2021/11/27 08:25:33;;;;;;;30.70;20.00;;;;;;;2.34;85.45;98731.66;1359128;89;21838;-90
2021/11/27 08:28:02;;;;;;;24.60;17.20;;;;;;;2.35;84.61;98734.61;1349345;91;21693;-90
2021/11/27 08:30:29;;;;;;;22.03;14.73;;;;;;;2.32;84.03;98728.35;1365876;89;21815;-90
2021/11/27 08:32:58;;;;;;;24.93;16.93;;;;;;;2.32;84.03;98728.35;1352988;90;21871;-90
2021/11/27 08:35:26;;;;;;;21.93;15.53;;;;;;;2.25;83.95;98722.38;1352963;90;21795;-90
2021/11/27 08:37:53;;;;;;;23.43;16.50;;;;;;;2.30;84.17;98731.57;1355847;90;21730;-91
2021/11/27 08:40:20;;;;;;;26.10;18.13;;;;;;;2.42;83.98;98725.28;1349131;90;21669;-89
2021/11/27 08:42:48;;;;;;;27.03;19.17;;;;;;;2.55;84.13;98717.97;1349709;90;23281;-89
2021/11/27 08:45:17;;;;;;;26.37;18.03;;;;;;;2.55;84.13;98717.97;1355808;90;21793;-90
2021/11/27 08:47:44;;;;;;;26.00;18.60;;;;;;;2.67;84.08;98718.16;1350905;91;22909;-90
2021/11/27 08:50:12;;;;;;;20.57;15.27;;;;;;;2.82;82.61;98719.89;1360963;89;21871;-90
2021/11/27 08:52:40;;;;;;;24.43;17.60;;;;;;;2.82;82.61;98719.89;1350945;91;21836;-90
2021/11/27 08:55:08;;;;;;;20.70;15.47;;;;;;;3.00;81.61;98736.98;1339511;91;22210;-90
2021/11/27 08:57:36;;;;;;;28.43;14.67;;;;;;;2.99;81.22;98737.10;1350439;90;22981;-89
2021/11/27 09:00:10;;;;;;;20.73;14.63;;;;;;;2.99;81.22;98737.10;1358056;90;21944;-90
2021/11/27 09:02:39;;;;;;;19.93;13.03;;;;;;;2.82;79.95;98751.70;1351569;90;22316;-88
2021/11/27 09:05:09;;;;;;;23.30;16.87;;;;;;;2.82;79.95;98751.70;1359209;89;22082;-90
2021/11/27 09:07:37;;;;;;;25.17;17.67;;;;;;;2.80;80.56;98757.08;1363872;89;21977;-91
2021/11/27 09:10:06;;;;;;;25.70;16.67;;;;;;;2.79;80.79;98748.06;1358022;89;21920;-90
2021/11/27 09:12:35;;;;;;;27.23;17.43;;;;;;;2.79;81.28;98744.99;1355836;89;21784;-90
2021/11/27 09:15:04;;;;;;;24.57;17.67;;;;;;;2.83;82.01;98753.37;1349691;89;22150;-90
2021/11/27 09:17:31;;;;;;;26.17;17.80;;;;;;;2.83;82.01;98753.37;1355154;90;23549;-89
2021/11/27 09:20:00;;;;;;;27.93;19.90;;;;;;;2.85;81.21;98752.27;1351812;90;22828;-90
2021/11/27 09:22:27;;;;;;;25.57;17.87;;;;;;;2.96;80.99;98773.48;1334797;90;22134;-91
2021/11/27 09:24:55;;;;;;;32.80;20.87;;;;;;;2.92;80.71;98786.02;1354554;90;22088;-90
2021/11/27 09:27:22;;;;;;;33.23;22.10;;;;;;;2.92;80.71;98786.02;1349559;89;21840;-90
2021/11/27 09:29:50;;;;;;;31.40;19.70;;;;;;;2.85;81.22;98786.70;1343944;90;22180;-90
2021/11/27 09:32:18;;;;;;;26.47;18.87;;;;;;;2.85;81.22;98786.70;1369903;89;22102;-90
2021/11/27 09:34:46;;;;;;;27.93;19.63;;;;;;;2.79;81.25;98787.25;1343359;90;22239;-90
2021/11/27 09:37:16;;;;;;;43.13;22.97;;;;;;;2.81;81.30;98789.25;1367617;89;22008;-92
2021/11/27 09:39:43;;;;;;;34.20;22.97;;;;;;;2.85;81.75;98778.40;1363565;89;22011;-89
2021/11/27 09:42:17;;;;;;;29.67;20.83;;;;;;;2.96;81.04;98769.56;1374033;90;22125;-90
2021/11/27 09:44:50;;;;;;;29.03;20.33;;;;;;;3.00;81.58;98770.13;1369473;89;21976;-90
2021/11/27 09:47:21;;;;;;;31.03;21.17;;;;;;;3.07;81.25;98765.49;1364467;89;22032;-91
2021/11/27 09:49:49;;;;;;;31.63;22.13;;;;;;;3.09;81.08;98758.34;1359227;91;23179;-91
2021/11/27 09:52:16;;;;;;;26.93;18.80;;;;;;;3.09;80.39;98757.52;1354647;89;22031;-91
2021/11/27 09:54:43;;;;;;;27.77;18.73;;;;;;;3.05;79.78;98772.67;1335491;90;23091;-89
2021/11/27 09:57:11;;;;;;;29.10;19.33;;;;;;;3.05;79.78;98772.67;1352505;90;22099;-90
2021/11/27 09:59:42;;;;;;;28.37;19.20;;;;;;;3.02;80.41;98765.11;1348344;89;23243;-90
2021/11/27 10:02:12;;;;;;;34.37;19.77;;;;;;;3.09;80.63;98772.72;1354435;90;23663;-90
2021/11/27 10:04:42;;;;;;;29.33;18.97;;;;;;;3.15;80.74;98780.00;1357165;89;22175;-89
2021/11/27 10:07:12;;;;;;;27.05;18.32;;;;;;;3.17;80.07;98778.56;1354300;90;22169;-91
2021/11/27 10:09:40;;;;;;;30.00;19.23;;;;;;;3.06;79.78;98781.33;1350096;90;21428;-90
2021/11/27 10:12:09;;;;;;;31.50;21.90;;;;;;;3.06;79.78;98781.33;1353404;89;22085;-90
2021/11/27 10:14:39;;;;;;;27.43;20.20;;;;;;;3.05;79.92;98779.66;1355474;90;22161;-90
2021/11/27 10:17:18;;;;;;;34.83;22.80;;;;;;;3.07;80.36;98773.33;1351629;90;22147;-89
2021/11/27 10:19:53;;;;;;;28.07;19.43;;;;;;;3.10;80.16;98778.28;1347856;91;23184;-89
2021/11/27 10:22:28;;;;;;;30.17;20.77;;;;;;;3.09;79.73;98782.36;1354911;90;22203;-89
2021/11/27 10:24:55;;;;;;;31.27;21.17;;;;;;;3.05;79.93;98779.20;1349960;91;22175;-90
2021/11/27 10:27:29;;;;;;;27.27;19.23;;;;;;;3.06;80.10;98787.38;1349463;90;22080;-88
2021/11/27 10:30:01;;;;;;;30.83;21.00;;;;;;;3.16;80.18;98771.66;1354484;90;22092;-90
2021/11/27 10:32:33;;;;;;;32.03;20.00;;;;;;;3.16;80.18;98771.66;1351979;90;22205;-89
2021/11/27 10:35:01;;;;;;;29.37;20.63;;;;;;;3.27;79.75;98797.66;1348066;91;23159;-89
2021/11/27 10:37:36;;;;;;;36.13;23.33;;;;;;;3.30;79.80;98793.94;1349620;90;22183;-90
2021/11/27 10:40:29;;;;;;;30.97;20.17;;;;;;;3.30;79.80;98793.94;1341466;91;22291;-89
2021/11/27 10:43:00;;;;;;;29.37;19.17;;;;;;;3.36;79.02;98802.03;1352268;91;22156;-89
2021/11/27 10:45:32;;;;;;;;;;;;;;;3.37;79.48;98808.93;1348089;91;22086;-86
2021/11/27 10:48:19;;;;;;;30.60;19.83;;;;;;;3.44;79.50;98811.80;1345130;91;21345;-89
2021/11/27 10:50:52;;;;;;;29.70;20.60;;;;;;;3.44;79.12;98811.67;1349843;91;23149;-89
2021/11/27 10:53:24;;;;;;;30.00;20.07;;;;;;;3.46;78.67;98811.67;1347835;90;22146;-88
2021/11/27 10:55:52;;;;;;;30.43;20.80;;;;;;;3.49;79.09;98832.31;1351786;91;22101;-88
2021/11/27 10:58:19;;;;;;;30.73;19.10;;;;;;;3.51;79.00;98824.67;1358544;90;22072;-88
2021/11/27 11:00:50;;;;;;;31.90;21.37;;;;;;;3.43;78.44;98827.16;1358387;91;22131;-89
2021/11/27 11:03:33;;;;;;;31.70;20.80;;;;;;;3.42;78.88;98828.59;1355409;90;23541;-89
2021/11/27 11:06:05;;;;;;;26.67;17.37;;;;;;;3.44;79.27;98819.64;1343437;91;22307;-89
2021/11/27 11:08:35;;;;;;;30.30;19.92;;;;;;;3.45;78.84;98814.74;1331263;91;22080;-89
2021/11/27 11:11:25;;;;;;;34.50;22.07;;;;;;;3.47;79.17;98817.23;1350145;89;21376;-89
2021/11/27 11:13:59;;;;;;;33.73;22.70;;;;;;;3.43;79.05;98828.47;1349554;89;21391;-90
2021/11/27 11:16:33;;;;;;;32.63;21.17;;;;;;;3.45;79.47;98828.31;1333360;89;22954;-89
2021/11/27 11:19:21;;;;;;;31.87;20.70;;;;;;;3.49;79.27;98836.23;1352479;90;22116;-90
2021/11/27 11:22:12;;;;;;;34.07;22.93;;;;;;;3.51;79.18;98839.05;1357119;89;22102;-90
2021/11/27 11:24:43;;;;;;;32.30;22.27;;;;;;;3.58;79.31;98847.97;1349505;90;22113;-89
2021/11/27 11:27:12;;;;;;;29.82;19.57;;;;;;;3.65;79.12;98850.83;1356597;91;22169;-91
2021/11/27 11:29:48;;;;;;;29.97;20.33;;;;;;;3.68;78.78;98858.89;1352569;89;21434;-89
2021/11/27 11:32:27;;;;;;;40.53;23.07;;;;;;;3.62;78.27;98858.97;1355521;90;22223;-88
2021/11/27 11:34:57;;;;;;;33.87;22.80;;;;;;;3.57;78.85;98862.03;1350660;90;22084;-90
2021/11/27 11:37:25;;;;;;;33.30;21.90;;;;;;;3.56;79.05;98866.08;1357431;90;22251;-91